createdAt,value
2017-09-10T00:01:35.648Z,95742.08
2017-09-10T00:04:03.070Z,95742.75
2017-09-10T00:06:30.645Z,95746.30
2017-09-10T00:08:58.068Z,95741.38
2017-09-10T00:11:25.483Z,95745.48
2017-09-10T00:13:52.934Z,95741.22
2017-09-10T00:16:20.353Z,95741.49
2017-09-10T00:18:47.903Z,95738.05
2017-09-10T00:21:15.339Z,95735.20
2017-09-10T00:23:42.749Z,95733.42
2017-09-10T00:26:10.163Z,95741.64
2017-09-10T00:28:37.623Z,95732.89
2017-09-10T00:31:05.047Z,95739.42
2017-09-10T00:33:32.483Z,95745.47
2017-09-10T00:35:59.963Z,95753.13
2017-09-10T00:38:27.398Z,95748.63
2017-09-10T00:40:54.808Z,95752.42
2017-09-10T00:43:22.286Z,95755.47
2017-09-10T00:45:49.814Z,95757.90
2017-09-10T00:48:17.312Z,95758.88
2017-09-10T00:50:44.792Z,95757.52
2017-09-10T00:53:12.211Z,95760.78
2017-09-10T00:55:39.626Z,95759.95
2017-09-10T00:58:07.114Z,95763.66
2017-09-10T01:00:34.538Z,95762.30
2017-09-10T01:03:01.976Z,95769.53
2017-09-10T01:05:29.427Z,95775.15
2017-09-10T01:07:56.847Z,95780.20
2017-09-10T01:10:24.259Z,95784.31
2017-09-10T01:12:51.777Z,95781.72
2017-09-10T01:15:19.193Z,95781.05
2017-09-10T01:17:46.618Z,95782.84
2017-09-10T01:20:14.079Z,95775.29
2017-09-10T01:22:41.499Z,95781.86
2017-09-10T01:25:08.904Z,95786.08
2017-09-10T01:27:36.413Z,95789.66
2017-09-10T01:30:03.924Z,95791.13
2017-09-10T01:32:31.334Z,95791.45
2017-09-10T01:34:58.788Z,95795.55
2017-09-10T01:37:27.064Z,95790.61
2017-09-10T01:39:54.480Z,95792.12
2017-09-10T01:42:21.942Z,95796.23
2017-09-10T01:44:49.362Z,95792.50
2017-09-10T01:47:16.809Z,95794.02
2017-09-10T01:49:44.268Z,95799.07
2017-09-10T01:52:11.704Z,95801.00
2017-09-10T01:54:39.108Z,95802.77
2017-09-10T01:57:06.612Z,95803.45
2017-09-10T01:59:34.032Z,95808.66
2017-09-10T02:02:01.460Z,95816.87
2017-09-10T02:04:28.900Z,95817.97
2017-09-10T02:06:56.321Z,95815.23
2017-09-10T02:09:23.752Z,95818.66
2017-09-10T02:11:51.193Z,95816.45
2017-09-10T02:14:18.613Z,95818.52
2017-09-10T02:16:46.041Z,95823.44
2017-09-10T02:19:13.487Z,95823.58
2017-09-10T02:21:40.902Z,95824.11
2017-09-10T02:24:08.316Z,95825.38
2017-09-10T02:26:35.755Z,95825.38
2017-09-10T02:29:03.385Z,95823.58
2017-09-10T02:31:30.804Z,95830.16
2017-09-10T02:33:58.244Z,95832.33
2017-09-10T02:36:25.990Z,95832.58
2017-09-10T02:38:53.404Z,95834.37
2017-09-10T02:41:20.840Z,95831.20
2017-09-10T02:43:48.299Z,95833.84
2017-09-10T02:46:15.716Z,95843.95
2017-09-10T02:48:43.217Z,95846.97
2017-09-10T02:51:10.650Z,95846.27
2017-09-10T02:53:38.068Z,95850.13
2017-09-10T02:56:05.618Z,95843.00
2017-09-10T02:58:33.032Z,95853.42
2017-09-10T03:01:00.468Z,95847.25
2017-09-10T03:03:27.919Z,95845.04
2017-09-10T03:05:55.345Z,95840.80
2017-09-10T03:08:22.764Z,95844.90
2017-09-10T03:10:50.223Z,95850.94
2017-09-10T03:13:17.637Z,95850.94
2017-09-10T03:15:45.137Z,95847.36
2017-09-10T03:18:12.563Z,95843.25
2017-09-10T03:20:39.982Z,95849.02
2017-09-10T03:23:07.397Z,95851.75
2017-09-10T03:25:34.837Z,95854.34
2017-09-10T03:28:02.247Z,95857.23
2017-09-10T03:30:29.679Z,95853.23
2017-09-10T03:32:57.168Z,95855.44
2017-09-10T03:35:24.596Z,95856.25
2017-09-10T03:37:52.010Z,95853.65
2017-09-10T03:40:19.516Z,95851.86
2017-09-10T03:42:47.010Z,95858.28
2017-09-10T03:45:14.480Z,95863.23
2017-09-10T03:47:41.910Z,95860.35
2017-09-10T03:50:09.350Z,95869.80
2017-09-10T03:52:36.786Z,95868.01
2017-09-10T03:55:04.368Z,95865.27
2017-09-10T03:57:32.569Z,95860.64
2017-09-10T03:59:59.983Z,95862.95
2017-09-10T04:02:27.403Z,95864.32
2017-09-10T04:04:54.823Z,95858.56
2017-09-10T04:07:22.239Z,95864.99
2017-09-10T04:09:49.821Z,95871.59
2017-09-10T04:12:17.243Z,95873.91
2017-09-10T04:14:44.693Z,95875.38
2017-09-10T04:17:12.150Z,95876.64
2017-09-10T04:19:39.577Z,95877.31
2017-09-10T04:22:06.983Z,95872.92
2017-09-10T04:24:34.646Z,95879.21
2017-09-10T04:27:02.063Z,95884.83
2017-09-10T04:29:29.476Z,95890.59
2017-09-10T04:31:56.940Z,95891.53
2017-09-10T04:34:24.352Z,95898.38
2017-09-10T04:36:51.956Z,95899.61
2017-09-10T04:39:19.426Z,95899.92
2017-09-10T04:41:46.834Z,95899.19
2017-09-10T04:44:14.274Z,95890.45
2017-09-10T04:46:41.724Z,95890.83
2017-09-10T04:49:09.184Z,95887.28
2017-09-10T04:51:36.609Z,95890.03
2017-09-10T04:54:04.042Z,95899.19
2017-09-10T04:56:31.567Z,95904.14
2017-09-10T04:58:59.106Z,95907.82
2017-09-10T05:01:26.579Z,95915.62
2017-09-10T05:03:54.120Z,95925.48
2017-09-10T05:06:21.542Z,95919.20
2017-09-10T05:08:48.987Z,95924.36
2017-09-10T05:11:16.398Z,95929.03
2017-09-10T05:13:43.863Z,95924.92
2017-09-10T05:16:11.442Z,95927.80
2017-09-10T05:18:38.864Z,95934.78
2017-09-10T05:21:06.776Z,95934.36
2017-09-10T05:23:34.229Z,95929.55
2017-09-10T05:26:01.675Z,95929.70
2017-09-10T05:28:29.088Z,95935.98
2017-09-10T05:30:56.578Z,95937.52
2017-09-10T05:33:23.996Z,95943.17
2017-09-10T05:35:51.422Z,95948.93
2017-09-10T05:38:18.886Z,95946.47
2017-09-10T05:40:46.305Z,95950.02
2017-09-10T05:43:13.778Z,95954.55
2017-09-10T05:45:41.346Z,95954.02
2017-09-10T05:48:08.841Z,95952.76
2017-09-10T05:50:36.264Z,95952.89
2017-09-10T05:53:03.717Z,95957.53
2017-09-10T05:55:31.130Z,95959.18
2017-09-10T05:57:58.567Z,95964.09
2017-09-10T06:00:26.077Z,95969.05
2017-09-10T06:02:53.493Z,95975.75
2017-09-10T06:05:20.919Z,95979.75
2017-09-10T06:07:48.387Z,95985.06
2017-09-10T06:10:15.813Z,95979.58
2017-09-10T06:12:43.363Z,95980.00
2017-09-10T06:15:10.783Z,95983.69
2017-09-10T06:17:38.204Z,95986.70
2017-09-10T06:20:05.630Z,95981.41
2017-09-10T06:22:33.085Z,95986.32
2017-09-10T06:25:00.510Z,95990.32
2017-09-10T06:27:27.914Z,95982.91
2017-09-10T06:29:55.362Z,95989.63
2017-09-10T06:32:22.790Z,95997.27
2017-09-10T06:34:50.224Z,96000.16
2017-09-10T06:37:17.688Z,96004.26
2017-09-10T06:39:45.160Z,96007.95
2017-09-10T06:42:12.658Z,96009.21
2017-09-10T06:44:40.130Z,96007.42
2017-09-10T06:47:07.556Z,96007.84
2017-09-10T06:49:34.979Z,96005.10
2017-09-10T06:52:02.573Z,96000.72
2017-09-10T06:54:29.975Z,96006.79
2017-09-10T06:56:57.408Z,96009.11
2017-09-10T06:59:24.857Z,96011.70
2017-09-10T07:01:52.345Z,96012.55
2017-09-10T07:04:19.835Z,96009.53
2017-09-10T07:06:47.299Z,96009.25
2017-09-10T07:09:14.785Z,96010.09
2017-09-10T07:11:42.173Z,96018.45
2017-09-10T07:14:09.615Z,96022.13
2017-09-10T07:16:37.061Z,96022.94
2017-09-10T07:19:04.503Z,96024.73
2017-09-10T07:21:31.953Z,96028.42
2017-09-10T07:23:59.382Z,96034.03
2017-09-10T07:26:26.822Z,96032.14
2017-09-10T07:28:54.398Z,96038.84
2017-09-10T07:31:21.838Z,96029.51
2017-09-10T07:33:49.330Z,96030.87
2017-09-10T07:36:16.794Z,96034.45
2017-09-10T07:38:44.207Z,96024.45
2017-09-10T07:41:11.628Z,96023.50
2017-09-10T07:43:39.121Z,96026.94
2017-09-10T07:46:06.564Z,96017.08
2017-09-10T07:48:33.999Z,96027.47
2017-09-10T07:51:01.459Z,96038.70
2017-09-10T07:53:28.922Z,96035.97
2017-09-10T07:55:56.664Z,96043.77
2017-09-10T07:58:24.229Z,96039.83
2017-09-10T08:00:51.643Z,96032.98
2017-09-10T08:03:19.069Z,96029.83
2017-09-10T08:05:46.549Z,96042.71
2017-09-10T08:08:13.967Z,96039.30
2017-09-10T08:10:41.373Z,96034.35
2017-09-10T08:13:08.822Z,96041.34
2017-09-10T08:15:36.257Z,96036.39
2017-09-10T08:18:03.681Z,96040.92
2017-09-10T08:20:31.138Z,96047.06
2017-09-10T08:22:58.654Z,96051.59
2017-09-10T08:25:26.093Z,96057.45
2017-09-10T08:27:53.683Z,96057.17
2017-09-10T08:30:21.112Z,96051.84
2017-09-10T08:32:48.535Z,96060.62
2017-09-10T08:35:16.002Z,96055.98
2017-09-10T08:40:36.689Z,96056.80
2017-09-10T08:43:04.107Z,96056.12
2017-09-10T08:45:31.535Z,96059.28
2017-09-10T08:47:59.017Z,96059.70
2017-09-10T08:50:26.456Z,96055.07
2017-09-10T08:52:54.136Z,96059.28
2017-09-10T08:55:21.595Z,96069.30
2017-09-10T08:57:49.013Z,96076.56
2017-09-10T09:00:16.435Z,96075.72
2017-09-10T09:02:44.053Z,96082.46
2017-09-10T09:05:11.561Z,96085.59
2017-09-10T09:07:39.000Z,96085.97
2017-09-10T09:10:06.414Z,96082.70
2017-09-10T09:12:33.854Z,96087.38
2017-09-10T09:15:01.284Z,96083.27
2017-09-10T09:17:28.720Z,96076.84
2017-09-10T09:19:56.142Z,96079.83
2017-09-10T09:22:23.560Z,96080.78
2017-09-10T09:24:51.060Z,96077.52
2017-09-10T09:27:18.488Z,96084.64
2017-09-10T09:29:45.945Z,96084.32
2017-09-10T09:32:13.389Z,96095.70
2017-09-10T09:34:40.858Z,96081.44
2017-09-10T09:37:08.318Z,96082.98
2017-09-10T09:39:35.766Z,96075.44
2017-09-10T09:42:03.280Z,96072.94
2017-09-10T09:44:30.716Z,96080.45
2017-09-10T09:46:58.255Z,96084.66
2017-09-10T09:49:25.665Z,96078.91
2017-09-10T09:51:53.856Z,96071.11
2017-09-10T09:54:21.315Z,96065.49
2017-09-10T09:56:48.726Z,96067.14
2017-09-10T09:59:16.161Z,96064.55
2017-09-10T10:01:43.628Z,96058.12
2017-09-10T10:04:11.086Z,96057.45
2017-09-10T10:06:38.603Z,96060.55
2017-09-10T10:09:06.054Z,96059.87
2017-09-10T10:11:33.467Z,96063.32
2017-09-10T10:14:00.902Z,96060.05
2017-09-10T10:16:28.328Z,96061.25
2017-09-10T10:18:55.742Z,96059.21
2017-09-10T10:21:23.231Z,96060.58
2017-09-10T10:23:50.693Z,96062.27
2017-09-10T10:26:18.132Z,96064.45
2017-09-10T10:28:45.608Z,96052.69
2017-09-10T10:31:13.056Z,96044.13
2017-09-10T10:33:40.490Z,96041.03
2017-09-10T10:36:07.956Z,96038.30
2017-09-10T10:38:35.428Z,96038.19
2017-09-10T10:41:02.881Z,96039.41
2017-09-10T10:43:30.317Z,96042.86
2017-09-10T10:45:57.788Z,96035.87
2017-09-10T10:48:25.221Z,96032.74
2017-09-10T10:50:52.735Z,96027.66
2017-09-10T10:53:21.145Z,96032.18
2017-09-10T10:55:48.665Z,96042.61
2017-09-10T10:58:16.100Z,96041.52
2017-09-10T11:00:43.539Z,96037.55
2017-09-10T11:03:10.971Z,96031.09
2017-09-10T11:05:38.398Z,96019.72
2017-09-10T11:08:05.857Z,96010.13
2017-09-10T11:10:33.284Z,96006.13
2017-09-10T11:13:00.701Z,96003.28
2017-09-10T11:15:28.174Z,96003.14
2017-09-10T11:17:55.724Z,96007.95
2017-09-10T11:20:23.158Z,96010.55
2017-09-10T11:22:50.604Z,96009.88
2017-09-10T11:25:18.036Z,96007.81
2017-09-10T11:27:45.466Z,95993.44
2017-09-10T11:30:12.930Z,95986.48
2017-09-10T11:32:40.759Z,95985.64
2017-09-10T11:35:08.197Z,96001.13
2017-09-10T11:37:36.502Z,96004.30
2017-09-10T11:40:03.991Z,95995.87
2017-09-10T11:42:31.465Z,95988.73
2017-09-10T11:44:58.968Z,95988.91
2017-09-10T11:47:26.412Z,95986.28
2017-09-10T11:49:53.840Z,96000.81
2017-09-10T11:52:21.348Z,96001.80
2017-09-10T11:54:49.729Z,96005.91
2017-09-10T11:57:17.150Z,95999.91
2017-09-10T11:59:44.621Z,96007.49
2017-09-10T12:02:12.047Z,96005.45
2017-09-10T12:04:39.506Z,96008.20
2017-09-10T12:07:06.988Z,96013.56
2017-09-10T12:09:34.465Z,96013.70
2017-09-10T12:12:01.900Z,96010.55
2017-09-10T12:14:29.369Z,96011.53
2017-09-10T12:16:56.852Z,96008.23
2017-09-10T12:19:24.308Z,96008.65
2017-09-10T12:21:51.775Z,96014.97
2017-09-10T12:24:19.323Z,96012.90
2017-09-10T12:26:46.770Z,96010.02
2017-09-10T12:29:14.380Z,96011.91
2017-09-10T12:31:41.832Z,96009.07
2017-09-10T12:34:09.300Z,96011.91
2017-09-10T12:36:36.906Z,96004.92
2017-09-10T12:39:04.395Z,96008.79
2017-09-10T12:41:31.835Z,96012.76
2017-09-10T12:43:59.371Z,96016.87
2017-09-10T12:46:26.939Z,96014.55
2017-09-10T12:48:54.497Z,96023.30
2017-09-10T12:51:21.967Z,96019.61
2017-09-10T12:53:49.397Z,96022.48
2017-09-10T12:56:16.839Z,96012.34
2017-09-10T12:58:44.319Z,96011.91
2017-09-10T13:01:11.785Z,96013.18
2017-09-10T13:03:39.334Z,96019.57
2017-09-10T13:06:06.769Z,96025.89
2017-09-10T13:08:34.216Z,96026.28
2017-09-10T13:11:01.815Z,96020.70
2017-09-10T13:13:29.306Z,96013.00
2017-09-10T13:15:56.792Z,96012.90
2017-09-10T13:18:24.234Z,96011.64
2017-09-10T13:20:51.696Z,96015.75
2017-09-10T13:23:19.155Z,96012.20
2017-09-10T13:25:46.579Z,96011.11
2017-09-10T13:28:14.022Z,96002.47
2017-09-10T13:30:41.437Z,96000.43
2017-09-10T13:33:08.898Z,95994.67
2017-09-10T13:35:36.333Z,95996.32
2017-09-10T13:38:03.843Z,95993.72
2017-09-10T13:40:31.344Z,95998.11
2017-09-10T13:42:58.820Z,95997.16
2017-09-10T13:45:26.264Z,95992.63
2017-09-10T13:47:53.784Z,95991.27
2017-09-10T13:50:21.268Z,95990.17
2017-09-10T13:52:48.691Z,95995.48
2017-09-10T13:55:16.140Z,95993.05
2017-09-10T13:57:43.658Z,95982.48
2017-09-10T14:00:11.095Z,95990.84
2017-09-10T14:02:38.579Z,95998.92
2017-09-10T14:05:06.033Z,95998.53
2017-09-10T14:07:33.481Z,95996.32
2017-09-10T14:10:00.900Z,95996.04
2017-09-10T14:12:28.403Z,96004.54
2017-09-10T14:14:55.823Z,96003.17
2017-09-10T14:17:23.236Z,96007.28
2017-09-10T14:19:50.783Z,95998.64
2017-09-10T14:22:18.232Z,96001.80
2017-09-10T14:24:45.649Z,95998.92
2017-09-10T14:27:13.126Z,95995.38
2017-09-10T14:29:40.646Z,95996.18
2017-09-10T14:32:08.093Z,95998.64
2017-09-10T14:34:35.609Z,95989.61
2017-09-10T14:37:03.144Z,95989.89
2017-09-10T14:39:30.697Z,95989.75
2017-09-10T14:41:58.166Z,95992.07
2017-09-10T14:44:25.608Z,95991.69
2017-09-10T14:46:53.045Z,95983.47
2017-09-10T14:49:20.524Z,95979.75
2017-09-10T14:51:48.017Z,95971.14
2017-09-10T14:54:15.442Z,95977.00
2017-09-10T14:56:42.913Z,95976.06
2017-09-10T14:59:10.379Z,95982.48
2017-09-10T15:01:37.857Z,95989.89
2017-09-10T15:04:05.596Z,95988.94
2017-09-10T15:06:33.044Z,95984.41
2017-09-10T15:09:00.472Z,95989.30
2017-09-10T15:11:27.922Z,95990.39
2017-09-10T15:13:55.362Z,95991.52
2017-09-10T15:16:22.865Z,95998.36
2017-09-10T15:18:50.962Z,95995.91
2017-09-10T15:21:18.406Z,95996.57
2017-09-10T15:23:45.966Z,95999.20
2017-09-10T15:26:13.500Z,95994.67
2017-09-10T15:28:40.942Z,95995.48
2017-09-10T15:31:08.429Z,95993.72
2017-09-10T15:33:35.881Z,95992.36
2017-09-10T15:36:03.441Z,95986.03
2017-09-10T15:38:30.862Z,95993.41
2017-09-10T15:40:58.340Z,95997.52
2017-09-10T15:43:25.772Z,96001.23
2017-09-10T15:45:53.227Z,96001.63
2017-09-10T15:48:20.690Z,95997.52
2017-09-10T15:50:48.132Z,96002.69
2017-09-10T15:53:15.559Z,96000.11
2017-09-10T15:55:43.117Z,95999.94
2017-09-10T15:58:10.602Z,95996.15
2017-09-10T16:00:38.137Z,95987.23
2017-09-10T16:03:05.588Z,95990.67
2017-09-10T16:05:33.036Z,95993.72
2017-09-10T16:08:00.478Z,95992.22
2017-09-10T16:10:27.938Z,95992.63
2017-09-10T16:12:55.380Z,95998.11
2017-09-10T16:15:22.828Z,95997.55
2017-09-10T16:17:50.407Z,95998.22
2017-09-10T16:20:17.841Z,95993.58
2017-09-10T16:22:45.288Z,95999.91
2017-09-10T16:25:12.746Z,95995.48
2017-09-10T16:27:40.286Z,95999.48
2017-09-10T16:30:08.670Z,95996.74
2017-09-10T16:32:36.134Z,95998.11
2017-09-10T16:35:03.754Z,95989.75
2017-09-10T16:37:31.173Z,95981.67
2017-09-10T16:39:58.619Z,95986.31
2017-09-10T16:42:26.075Z,95987.27
2017-09-10T16:44:53.519Z,96000.68
2017-09-10T16:47:20.951Z,96002.89
2017-09-10T16:49:48.414Z,96000.26
2017-09-10T16:52:15.965Z,96002.05
2017-09-10T16:54:43.397Z,95996.32
2017-09-10T16:57:10.809Z,96000.57
2017-09-10T16:59:38.239Z,95995.48
2017-09-10T17:02:05.908Z,95993.72
2017-09-10T17:04:33.484Z,96000.57
2017-09-10T17:07:00.912Z,96000.57
2017-09-10T17:09:28.398Z,95999.73
2017-09-10T17:11:55.880Z,95995.62
2017-09-10T17:14:23.320Z,95999.31
2017-09-10T17:16:50.809Z,95996.99
2017-09-10T17:19:18.243Z,95995.77
2017-09-10T17:21:45.684Z,95998.08
2017-09-10T17:24:14.849Z,95999.31
2017-09-10T17:26:42.592Z,95988.49
2017-09-10T17:29:10.028Z,95981.36
2017-09-10T17:31:37.461Z,95987.79
2017-09-10T17:34:05.952Z,95988.32
2017-09-10T17:36:33.387Z,95981.72
2017-09-10T17:39:00.823Z,95984.56
2017-09-10T17:41:28.232Z,95980.23
2017-09-10T17:43:55.656Z,95979.71
2017-09-10T17:46:23.134Z,95983.93
2017-09-10T17:48:50.547Z,95986.14
2017-09-10T17:51:17.975Z,95996.15
2017-09-10T17:53:45.434Z,95986.25
2017-09-10T17:56:12.913Z,95992.39
2017-09-10T17:58:40.338Z,95984.87
2017-09-10T18:01:08.491Z,95988.98
2017-09-10T18:03:35.909Z,95995.02
2017-09-10T18:06:03.366Z,95996.25
2017-09-10T18:08:30.791Z,95994.08
2017-09-10T18:10:58.271Z,96002.58
2017-09-10T18:13:25.702Z,96000.08
2017-09-10T18:15:53.135Z,96014.73
2017-09-10T18:18:20.557Z,96017.47
2017-09-10T18:20:48.002Z,96013.25
2017-09-10T18:23:15.516Z,96024.91
2017-09-10T18:25:42.943Z,96020.09
2017-09-10T18:28:10.370Z,96019.54
2017-09-10T18:30:37.799Z,96016.80
2017-09-10T18:33:05.257Z,96019.12
2017-09-10T18:35:32.734Z,96019.78
2017-09-10T18:38:00.189Z,96018.73
2017-09-10T18:40:27.753Z,96023.23
2017-09-10T18:42:55.173Z,96026.39
2017-09-10T18:45:22.627Z,96034.60
2017-09-10T18:47:50.063Z,96041.03
2017-09-10T18:50:17.983Z,96039.13
2017-09-10T18:52:45.482Z,96042.96
2017-09-10T18:55:13.084Z,96047.49
2017-09-10T18:57:40.556Z,96052.41
2017-09-10T19:00:08.354Z,96052.97
2017-09-10T19:02:35.783Z,96044.33
2017-09-10T19:05:03.206Z,96037.59
2017-09-10T19:07:30.750Z,96040.64
2017-09-10T19:09:58.180Z,96040.75
2017-09-10T19:12:25.712Z,96036.64
2017-09-10T19:14:53.170Z,96032.42
2017-09-10T19:17:20.651Z,96044.72
2017-09-10T19:19:48.078Z,96036.92
2017-09-10T19:22:15.570Z,96045.95
2017-09-10T19:24:43.075Z,96040.05
2017-09-10T19:27:10.529Z,96038.57
2017-09-10T19:29:37.995Z,96037.06
2017-09-10T19:32:05.438Z,96039.52
2017-09-10T19:34:33.485Z,96041.56
2017-09-10T19:37:00.943Z,96035.94
2017-09-10T19:39:28.381Z,96037.87
2017-09-10T19:41:55.817Z,96037.02
2017-09-10T19:44:23.325Z,96033.38
2017-09-10T19:46:50.745Z,96031.72
2017-09-10T19:49:18.176Z,96036.64
2017-09-10T19:51:45.650Z,96035.27
2017-09-10T19:54:13.112Z,96031.16
2017-09-10T19:56:40.554Z,96036.11
2017-09-10T19:59:08.008Z,96037.59
2017-09-10T20:01:35.474Z,96034.33
2017-09-10T20:04:02.918Z,96031.72
2017-09-10T20:06:30.370Z,96029.94
2017-09-10T20:08:57.772Z,96030.46
2017-09-10T20:11:25.235Z,96030.46
2017-09-10T20:13:52.665Z,96024.03
2017-09-10T20:16:20.079Z,96026.77
2017-09-10T20:18:47.515Z,96031.72
2017-09-10T20:21:14.989Z,96024.45
2017-09-10T20:23:42.403Z,96026.35
2017-09-10T20:26:09.892Z,96030.73
2017-09-10T20:28:37.351Z,96027.86
2017-09-10T20:31:04.766Z,96036.92
2017-09-10T20:33:32.199Z,96032.25
2017-09-10T20:35:59.757Z,96032.11
2017-09-10T20:38:27.166Z,96034.46
2017-09-10T20:40:54.639Z,96033.48
2017-09-10T20:43:22.172Z,96034.74
2017-09-10T20:45:49.589Z,96038.96
2017-09-10T20:48:17.018Z,96042.96
2017-09-10T20:50:44.490Z,96041.17
2017-09-10T20:53:12.032Z,96039.80
2017-09-10T20:55:39.447Z,96043.07
2017-09-10T20:58:06.916Z,96043.48
2017-09-10T21:00:34.353Z,96040.89
2017-09-10T21:03:01.826Z,96041.03
2017-09-10T21:05:29.259Z,96029.52
2017-09-10T21:07:56.684Z,96030.18
2017-09-10T21:10:24.122Z,96026.62
2017-09-10T21:12:51.657Z,96025.65
2017-09-10T21:15:19.213Z,96027.86
2017-09-10T21:17:47.603Z,96033.20
2017-09-10T21:20:15.129Z,96026.49
2017-09-10T21:22:42.565Z,96026.07
2017-09-10T21:25:09.984Z,96028.39
2017-09-10T21:27:37.433Z,96023.33
2017-09-10T21:30:05.231Z,96033.34
2017-09-10T21:32:33.294Z,96033.06
2017-09-10T21:35:00.761Z,96024.00
2017-09-10T21:37:28.290Z,96027.16
2017-09-10T21:39:55.902Z,96027.58
2017-09-10T21:42:23.389Z,96030.31
2017-09-10T21:44:50.803Z,96026.73
2017-09-10T21:47:18.266Z,96021.26
2017-09-10T21:49:45.687Z,96024.25
2017-09-10T21:52:13.130Z,96028.67
2017-09-10T21:54:40.538Z,96025.51
2017-09-10T21:57:08.003Z,96022.20
2017-09-10T21:59:35.434Z,96013.71
2017-09-10T22:02:02.884Z,96011.11
2017-09-10T22:04:30.332Z,96010.55
2017-09-10T22:06:57.770Z,96003.59
2017-09-10T22:09:25.189Z,95996.05
2017-09-10T22:11:52.638Z,96000.58
2017-09-10T22:14:20.057Z,96003.17
2017-09-10T22:16:47.479Z,96002.89
2017-09-10T22:19:14.914Z,95993.45
2017-09-10T22:21:42.359Z,95993.02
2017-09-10T22:24:09.852Z,95992.61
2017-09-10T22:26:37.330Z,95990.70
2017-09-10T22:29:05.372Z,95992.08
2017-09-10T22:31:32.801Z,95990.81
2017-09-10T22:34:00.239Z,95987.27
2017-09-10T22:36:27.783Z,95992.99
2017-09-10T22:38:55.215Z,95990.53
2017-09-10T22:41:22.678Z,95987.27
2017-09-10T22:43:50.104Z,95987.09
2017-09-10T22:46:17.529Z,95984.88
2017-09-10T22:48:44.995Z,95976.38
2017-09-10T22:51:12.430Z,95974.06
2017-09-10T22:53:39.855Z,95970.63
2017-09-10T22:56:07.360Z,95967.36
2017-09-10T22:58:34.783Z,95966.23
2017-09-10T23:01:02.816Z,95962.13
2017-09-10T23:03:30.290Z,95963.22
2017-09-10T23:05:57.701Z,95958.69
2017-09-10T23:08:25.130Z,95958.55
2017-09-10T23:10:52.732Z,95964.41
2017-09-10T23:13:20.171Z,95962.52
2017-09-10T23:15:47.587Z,95958.83
2017-09-10T23:18:15.013Z,95958.94
2017-09-10T23:20:42.499Z,95953.87
2017-09-10T23:23:09.945Z,95954.97
2017-09-10T23:25:37.386Z,95954.13
2017-09-10T23:28:05.705Z,95951.11
2017-09-10T23:30:33.139Z,95955.64
2017-09-10T23:33:00.573Z,95958.38
2017-09-10T23:35:28.072Z,95947.42
2017-09-10T23:37:55.803Z,95942.47
2017-09-10T23:40:23.235Z,95947.00
2017-09-10T23:42:50.660Z,95949.31
2017-09-10T23:45:18.185Z,95949.88
2017-09-10T23:47:45.624Z,95941.24
2017-09-10T23:50:13.107Z,95943.45
2017-09-10T23:52:40.517Z,95947.14
2017-09-10T23:55:07.976Z,95943.84
2017-09-10T23:57:35.414Z,95937.80
